createdAt,value
2018-08-13T00:01:06.091Z,99491.48
2018-08-13T00:04:04.879Z,99497.92
2018-08-13T00:07:03.521Z,99497.45
2018-08-13T00:10:01.918Z,99485.98
2018-08-13T00:13:00.378Z,99492.58
2018-08-13T00:15:58.539Z,99482.69
2018-08-13T00:18:56.791Z,99480.80
2018-08-13T00:21:54.967Z,99485.05
2018-08-13T00:24:53.373Z,99478.98
2018-08-13T00:27:52.569Z,99478.98
2018-08-13T00:30:50.787Z,99478.98
2018-08-13T00:33:49.927Z,99479.58
2018-08-13T00:36:48.292Z,99474.17
2018-08-13T00:39:46.419Z,99470.73
2018-08-13T00:42:45.001Z,99467.83
2018-08-13T00:45:44.314Z,99463.69
2018-08-13T00:48:42.502Z,99465.02
2018-08-13T00:51:42.880Z,99459.05
2018-08-13T00:54:42.344Z,99462.31
2018-08-13T00:57:40.786Z,99460.08
2018-08-13T01:00:39.672Z,99463.70
2018-08-13T01:03:38.330Z,99458.92
2018-08-13T01:06:36.210Z,99457.73
2018-08-13T01:09:34.272Z,99454.77
2018-08-13T01:12:33.416Z,99451.88
2018-08-13T01:15:34.149Z,99453.80
2018-08-13T01:18:32.743Z,99457.14
2018-08-13T01:21:31.017Z,99449.81
2018-08-13T01:24:29.774Z,99442.36
2018-08-13T01:27:34.196Z,99434.51
2018-08-13T01:30:32.967Z,99440.58
2018-08-13T01:33:31.225Z,99431.27
2018-08-13T01:36:29.334Z,99435.89
2018-08-13T01:39:29.652Z,99435.33
2018-08-13T01:42:27.778Z,99433.73
2018-08-13T01:45:25.962Z,99430.11
2018-08-13T01:48:24.132Z,99423.16
2018-08-13T01:51:23.718Z,99423.86
2018-08-13T01:54:23.094Z,99427.48
2018-08-13T01:57:21.353Z,99418.75
2018-08-13T02:00:23.382Z,99417.89
2018-08-13T02:03:21.800Z,99415.55
2018-08-13T02:06:20.041Z,99410.39
2018-08-13T02:09:19.213Z,99415.05
2018-08-13T02:12:17.585Z,99414.68
2018-08-13T02:15:15.655Z,99414.58
2018-08-13T02:18:13.512Z,99414.10
2018-08-13T02:21:12.093Z,99416.73
2018-08-13T02:24:10.537Z,99413.42
2018-08-13T02:27:08.889Z,99415.92
2018-08-13T02:30:06.811Z,99409.75
2018-08-13T02:33:05.218Z,99411.18
2018-08-13T02:36:03.225Z,99412.98
2018-08-13T02:39:03.609Z,99410.70
2018-08-13T02:42:02.888Z,99411.45
2018-08-13T02:45:01.051Z,99411.38
2018-08-13T02:47:59.467Z,99412.30
2018-08-13T02:50:57.876Z,99411.01
2018-08-13T02:53:56.344Z,99414.48
2018-08-13T02:56:54.617Z,99411.66
2018-08-13T02:59:52.780Z,99405.80
2018-08-13T03:02:51.558Z,99407.33
2018-08-13T03:05:49.794Z,99405.69
2018-08-13T03:08:48.210Z,99402.31
2018-08-13T03:11:47.364Z,99397.58
2018-08-13T03:14:45.207Z,99398.56
2018-08-13T03:17:53.201Z,99393.52
2018-08-13T03:20:51.390Z,99392.97
2018-08-13T03:23:49.729Z,99386.50
2018-08-13T03:26:47.894Z,99388.58
2018-08-13T03:29:46.045Z,99398.29
2018-08-13T03:32:46.382Z,99388.98
2018-08-13T03:35:44.836Z,99388.41
2018-08-13T03:38:43.946Z,99384.41
2018-08-13T03:41:42.201Z,99384.27
2018-08-13T03:44:40.253Z,99391.23
2018-08-13T03:47:38.531Z,99388.69
2018-08-13T03:50:38.111Z,99385.46
2018-08-13T03:53:36.186Z,99384.88
2018-08-13T03:56:34.364Z,99378.30
2018-08-13T03:59:32.570Z,99373.66
2018-08-13T04:02:33.014Z,99380.50
2018-08-13T04:05:32.381Z,99381.73
2018-08-13T04:08:30.455Z,99376.36
2018-08-13T04:11:29.881Z,99378.23
2018-08-13T04:14:29.036Z,99372.69
2018-08-13T04:17:27.549Z,99371.13
2018-08-13T04:20:26.809Z,99374.05
2018-08-13T04:23:26.913Z,99377.49
2018-08-13T04:26:25.378Z,99379.27
2018-08-13T04:29:23.446Z,99365.20
2018-08-13T04:32:22.729Z,99364.04
2018-08-13T04:35:21.897Z,99373.97
2018-08-13T04:38:20.176Z,99366.80
2018-08-13T04:41:19.579Z,99360.48
2018-08-13T04:44:19.046Z,99362.77
2018-08-13T04:47:17.213Z,99360.86
2018-08-13T04:50:17.433Z,99355.17
2018-08-13T04:53:15.992Z,99363.91
2018-08-13T04:56:14.463Z,99368.91
2018-08-13T04:59:12.729Z,99365.73
2018-08-13T05:02:10.856Z,99360.13
2018-08-13T05:05:09.080Z,99362.45
2018-08-13T05:08:07.334Z,99365.90
2018-08-13T05:11:05.988Z,99366.93
2018-08-13T05:14:05.309Z,99360.30
2018-08-13T05:17:03.638Z,99353.56
2018-08-13T05:20:11.305Z,99355.78
2018-08-13T05:23:10.711Z,99354.38
2018-08-13T05:26:09.091Z,99351.70
2018-08-13T05:29:07.401Z,99352.31
2018-08-13T05:32:06.148Z,99354.97
2018-08-13T05:35:05.418Z,99349.46
2018-08-13T05:38:03.696Z,99345.40
2018-08-13T05:41:01.914Z,99338.32
2018-08-13T05:44:00.098Z,99344.64
2018-08-13T05:46:59.178Z,99342.84
2018-08-13T05:49:58.705Z,99333.86
2018-08-13T05:52:56.807Z,99332.92
2018-08-13T05:55:55.357Z,99324.77
2018-08-13T05:58:54.784Z,99322.56
2018-08-13T06:01:53.088Z,99318.27
2018-08-13T06:04:51.453Z,99314.16
2018-08-13T06:07:50.736Z,99311.44
2018-08-13T06:10:49.478Z,99311.14
2018-08-13T06:13:47.445Z,99321.45
2018-08-13T06:16:46.332Z,99316.80
2018-08-13T06:19:44.564Z,99311.62
2018-08-13T06:22:42.753Z,99310.52
2018-08-13T06:25:40.569Z,99316.33
2018-08-13T06:28:38.706Z,99310.81
2018-08-13T06:31:37.961Z,99308.80
2018-08-13T06:34:36.120Z,99303.67
2018-08-13T06:37:34.401Z,99304.89
2018-08-13T06:40:32.665Z,99304.04
2018-08-13T06:43:31.949Z,99306.87
2018-08-13T06:46:30.328Z,99302.63
2018-08-13T06:49:28.129Z,99305.74
2018-08-13T06:52:26.781Z,99305.16
2018-08-13T06:55:26.360Z,99307.20
2018-08-13T06:58:25.812Z,99300.20
2018-08-13T07:01:24.103Z,99298.25
2018-08-13T07:04:22.025Z,99300.36
2018-08-13T07:07:20.316Z,99296.13
2018-08-13T07:10:20.609Z,99302.01
2018-08-13T07:13:18.880Z,99300.64
2018-08-13T07:16:18.511Z,99293.38
2018-08-13T07:19:16.740Z,99297.33
2018-08-13T07:22:14.972Z,99298.75
2018-08-13T07:25:14.005Z,99289.42
2018-08-13T07:28:12.286Z,99287.66
2018-08-13T07:31:11.565Z,99287.59
2018-08-13T07:34:11.849Z,99292.70
2018-08-13T07:37:10.003Z,99285.67
2018-08-13T07:40:08.359Z,99285.37
2018-08-13T07:43:06.672Z,99285.09
2018-08-13T07:46:04.745Z,99289.84
2018-08-13T07:49:03.089Z,99286.32
2018-08-13T07:52:01.539Z,99287.83
2018-08-13T07:54:59.820Z,99280.41
2018-08-13T07:57:57.776Z,99281.42
2018-08-13T08:00:56.240Z,99278.43
2018-08-13T08:03:54.616Z,99274.52
2018-08-13T08:06:52.872Z,99271.83
2018-08-13T08:09:52.148Z,99275.67
2018-08-13T08:12:51.171Z,99271.24
2018-08-13T08:15:50.379Z,99260.72
2018-08-13T08:18:48.493Z,99264.78
2018-08-13T08:21:46.859Z,99264.05
2018-08-13T08:24:44.968Z,99254.52
2018-08-13T08:27:43.296Z,99259.84
2018-08-13T08:30:41.739Z,99263.85
2018-08-13T08:33:40.213Z,99260.39
2018-08-13T08:36:38.393Z,99261.33
2018-08-13T08:39:36.553Z,99260.03
2018-08-13T08:42:35.003Z,99261.83
2018-08-13T08:45:38.191Z,99262.08
2018-08-13T08:48:36.490Z,99258.58
2018-08-13T08:51:34.661Z,99258.52
2018-08-13T08:54:33.002Z,99256.20
2018-08-13T08:57:31.565Z,99256.87
2018-08-13T09:00:33.800Z,99257.53
2018-08-13T09:03:32.109Z,99252.09
2018-08-13T09:06:30.575Z,99252.95
2018-08-13T09:09:31.013Z,99249.97
2018-08-13T09:12:30.689Z,99242.16
2018-08-13T09:15:29.575Z,99239.87
2018-08-13T09:18:40.394Z,99240.20
2018-08-13T09:21:46.881Z,99240.03
2018-08-13T09:26:03.289Z,99233.05
2018-08-13T09:29:13.820Z,99233.77
2018-08-13T09:32:30.195Z,99223.42
2018-08-13T09:35:59.932Z,99225.86
2018-08-13T09:38:57.958Z,99222.06
2018-08-13T09:41:56.133Z,99219.42
2018-08-13T09:44:55.519Z,99214.95
2018-08-13T09:47:54.781Z,99216.56
2018-08-13T09:50:56.217Z,99213.11
2018-08-13T09:53:54.771Z,99210.23
2018-08-13T09:56:52.925Z,99206.44
2018-08-13T09:59:51.180Z,99203.89
2018-08-13T10:02:49.397Z,99194.71
2018-08-13T10:05:47.663Z,99193.75
2018-08-13T10:08:45.895Z,99191.05
2018-08-13T10:11:44.381Z,99190.09
2018-08-13T10:14:42.428Z,99197.25
2018-08-13T10:17:40.733Z,99188.14
2018-08-13T10:20:39.828Z,99187.92
2018-08-13T10:23:37.892Z,99184.91
2018-08-13T10:26:36.105Z,99180.40
2018-08-13T10:29:34.097Z,99170.20
2018-08-13T10:32:32.223Z,99167.89
2018-08-13T10:35:30.584Z,99168.70
2018-08-13T10:38:28.881Z,99163.66
2018-08-13T10:41:27.346Z,99158.19
2018-08-13T10:44:25.709Z,99150.56
2018-08-13T10:47:24.159Z,99149.11
2018-08-13T10:50:23.448Z,99153.89
2018-08-13T10:53:21.914Z,99164.45
2018-08-13T10:56:20.105Z,99163.48
2018-08-13T10:59:18.364Z,99159.51
2018-08-13T11:02:17.533Z,99152.12
2018-08-13T11:05:16.442Z,99144.23
2018-08-13T11:08:15.392Z,99138.70
2018-08-13T11:11:14.884Z,99129.73
2018-08-13T11:14:13.323Z,99131.67
2018-08-13T11:17:11.492Z,99129.84
2018-08-13T11:20:10.555Z,99124.45
2018-08-13T11:23:09.163Z,99123.84
2018-08-13T11:26:08.365Z,99125.09
2018-08-13T11:29:06.549Z,99120.09
2018-08-13T11:32:05.931Z,99124.58
2018-08-13T11:35:04.271Z,99116.62
2018-08-13T11:38:02.281Z,99115.42
2018-08-13T11:41:00.403Z,99118.37
2018-08-13T11:43:58.417Z,99121.36
2018-08-13T11:46:57.018Z,99123.89
2018-08-13T11:49:55.716Z,99113.28
2018-08-13T11:52:56.630Z,99111.80
2018-08-13T11:55:55.680Z,99100.26
2018-08-13T11:58:55.098Z,99087.28
2018-08-13T12:01:53.404Z,99089.27
2018-08-13T12:04:51.730Z,99099.66
2018-08-13T12:07:50.645Z,99090.52
2018-08-13T12:10:48.957Z,99086.83
2018-08-13T12:13:46.830Z,99077.02
2018-08-13T12:16:45.973Z,99082.30
2018-08-13T12:19:45.221Z,99066.47
2018-08-13T12:22:43.559Z,99068.22
2018-08-13T12:25:43.775Z,99070.50
2018-08-13T12:28:42.005Z,99069.78
2018-08-13T12:31:41.397Z,99078.13
2018-08-13T12:34:39.802Z,99063.03
2018-08-13T12:37:37.870Z,99062.87
2018-08-13T12:40:36.667Z,99049.05
2018-08-13T12:43:35.341Z,99053.17
2018-08-13T12:46:34.193Z,99051.72
2018-08-13T12:49:33.461Z,99048.77
2018-08-13T12:52:31.743Z,99038.52
2018-08-13T12:55:29.677Z,99043.45
2018-08-13T12:58:27.986Z,99038.07
2018-08-13T13:01:25.906Z,99031.08
2018-08-13T13:04:25.030Z,99038.80
2018-08-13T13:07:23.001Z,99031.64
2018-08-13T13:10:24.690Z,99033.59
2018-08-13T13:13:22.742Z,99020.13
2018-08-13T13:16:20.913Z,99017.48
2018-08-13T13:19:18.987Z,99011.20
2018-08-13T13:22:17.281Z,99004.14
2018-08-13T13:25:15.450Z,99012.05
2018-08-13T13:28:13.748Z,98989.13
2018-08-13T13:31:12.887Z,98993.75
2018-08-13T13:34:11.194Z,98985.86
2018-08-13T13:37:10.419Z,98986.38
2018-08-13T13:40:08.689Z,98981.20
2018-08-13T13:43:06.725Z,98969.16
2018-08-13T13:46:05.950Z,98973.42
2018-08-13T13:49:03.986Z,98965.84
2018-08-13T13:52:02.488Z,98974.57
2018-08-13T13:55:01.843Z,98976.25
2018-08-13T13:58:00.112Z,98966.14
2018-08-13T14:00:58.481Z,98972.70
2018-08-13T14:03:56.847Z,98964.86
2018-08-13T14:07:03.009Z,98966.77
2018-08-13T14:10:01.262Z,98966.70
2018-08-13T14:12:59.435Z,98966.03
2018-08-13T14:15:57.757Z,98962.65
2018-08-13T14:18:56.374Z,98950.13
2018-08-13T14:21:55.845Z,98950.31
2018-08-13T14:24:54.112Z,98953.44
2018-08-13T14:27:52.404Z,98949.12
2018-08-13T14:30:51.936Z,98950.36
2018-08-13T14:33:50.160Z,98947.54
2018-08-13T14:36:48.761Z,98947.33
2018-08-13T14:39:47.129Z,98948.00
2018-08-13T14:42:45.448Z,98947.22
2018-08-13T14:45:44.831Z,98944.30
2018-08-13T14:48:43.225Z,98944.95
2018-08-13T14:51:48.697Z,98951.86
2018-08-13T14:54:46.765Z,98938.92
2018-08-13T14:57:45.944Z,98943.67
2018-08-13T15:00:46.497Z,98932.31
2018-08-13T15:03:44.353Z,98927.60
2018-08-13T15:06:42.408Z,98926.21
2018-08-13T15:09:41.591Z,98917.44
2018-08-13T15:12:40.162Z,98913.75
2018-08-13T15:15:38.131Z,98912.67
2018-08-13T15:18:36.296Z,98902.62
2018-08-13T15:21:34.747Z,98908.98
2018-08-13T15:24:32.969Z,98907.63
2018-08-13T15:27:33.835Z,98899.33
2018-08-13T15:30:34.849Z,98898.24
2018-08-13T15:33:33.779Z,98896.30
2018-08-13T15:36:32.112Z,98894.15
2018-08-13T15:39:31.313Z,98890.84
2018-08-13T15:42:29.558Z,98890.85
2018-08-13T15:45:31.746Z,98884.49
2018-08-13T15:48:29.781Z,98882.86
2018-08-13T15:51:28.379Z,98881.45
2018-08-13T15:54:27.274Z,98872.37
2018-08-13T15:57:26.842Z,98880.79
2018-08-13T16:00:26.982Z,98870.58
2018-08-13T16:03:25.199Z,98872.09
2018-08-13T16:06:23.549Z,98869.33
2018-08-13T16:09:22.238Z,98861.66
2018-08-13T16:12:20.384Z,98855.33
2018-08-13T16:15:19.686Z,98855.97
2018-08-13T16:18:17.824Z,98857.91
2018-08-13T16:21:16.184Z,98856.23
2018-08-13T16:24:14.561Z,98845.63
2018-08-13T16:27:12.859Z,98837.91
2018-08-13T16:30:11.227Z,98842.17
2018-08-13T16:33:09.493Z,98832.73
2018-08-13T16:36:07.726Z,98828.55
2018-08-13T16:39:07.353Z,98826.81
2018-08-13T16:42:06.020Z,98823.69
2018-08-13T16:45:04.424Z,98824.69
2018-08-13T16:48:02.416Z,98811.70
2018-08-13T16:51:00.829Z,98819.01
2018-08-13T16:53:59.273Z,98814.69
2018-08-13T16:56:57.546Z,98817.90
2018-08-13T16:59:57.366Z,98812.50
2018-08-13T17:02:55.701Z,98806.41
2018-08-13T17:05:55.015Z,98803.09
2018-08-13T17:08:53.149Z,98806.23
2018-08-13T17:11:51.330Z,98807.92
2018-08-13T17:14:49.356Z,98807.11
2018-08-13T17:17:47.531Z,98811.94
2018-08-13T17:20:52.552Z,98811.10
2018-08-13T17:23:50.905Z,98811.67
2018-08-13T17:26:48.793Z,98818.90
2018-08-13T17:29:47.483Z,98819.53
2018-08-13T17:32:46.736Z,98816.74
2018-08-13T17:35:47.962Z,98823.94
2018-08-13T17:38:47.493Z,98819.33
2018-08-13T17:41:48.506Z,98821.05
2018-08-13T17:44:46.521Z,98825.95
2018-08-13T17:47:45.769Z,98823.98
2018-08-13T17:50:45.223Z,98829.32
2018-08-13T17:53:43.585Z,98829.70
2018-08-13T17:56:41.557Z,98828.97
2018-08-13T17:59:40.661Z,98829.63
2018-08-13T18:02:39.077Z,98832.61
2018-08-13T18:05:41.293Z,98827.19
2018-08-13T18:08:40.400Z,98837.28
2018-08-13T18:11:38.710Z,98839.47
2018-08-13T18:14:36.824Z,98836.05
2018-08-13T18:17:35.136Z,98844.13
2018-08-13T18:20:33.425Z,98844.13
2018-08-13T18:23:31.594Z,98850.30
2018-08-13T18:26:29.956Z,98849.59
2018-08-13T18:29:28.093Z,98850.81
2018-08-13T18:32:27.765Z,98845.53
2018-08-13T18:35:25.850Z,98855.39
2018-08-13T18:38:24.732Z,98854.66
2018-08-13T18:41:23.207Z,98856.20
2018-08-13T18:44:23.099Z,98866.67
2018-08-13T18:47:22.813Z,98863.33
2018-08-13T18:50:23.328Z,98864.13
2018-08-13T18:53:21.465Z,98856.13
2018-08-13T18:56:20.463Z,98859.45
2018-08-13T18:59:18.914Z,98857.66
2018-08-13T19:02:17.400Z,98860.64
2018-08-13T19:05:15.420Z,98861.75
2018-08-13T19:08:14.402Z,98863.91
2018-08-13T19:11:13.516Z,98860.67
2018-08-13T19:14:11.572Z,98863.25
2018-08-13T19:17:09.937Z,98861.11
2018-08-13T19:20:08.329Z,98862.69
2018-08-13T19:23:06.673Z,98849.37
2018-08-13T19:26:04.750Z,98856.42
2018-08-13T19:29:02.913Z,98853.61
2018-08-13T19:32:01.150Z,98849.25
2018-08-13T19:34:59.143Z,98849.00
2018-08-13T19:37:57.777Z,98854.40
2018-08-13T19:40:57.516Z,98855.88
2018-08-13T19:43:56.880Z,98857.78
2018-08-13T19:46:55.075Z,98856.42
2018-08-13T19:49:53.519Z,98856.25
2018-08-13T19:52:54.870Z,98858.37
2018-08-13T19:55:54.747Z,98863.56
2018-08-13T19:58:55.293Z,98866.94
2018-08-13T20:01:54.942Z,98859.84
2018-08-13T20:04:54.505Z,98852.72
2018-08-13T20:07:52.830Z,98855.34
2018-08-13T20:10:51.215Z,98848.83
2018-08-13T20:13:49.556Z,98848.48
2018-08-13T20:16:47.937Z,98853.91
2018-08-13T20:19:47.314Z,98842.27
2018-08-13T20:22:45.757Z,98847.95
2018-08-13T20:25:43.837Z,98852.14
2018-08-13T20:28:43.133Z,98877.06
2018-08-13T20:31:41.631Z,98907.03
2018-08-13T20:34:39.672Z,98884.56
2018-08-13T20:37:37.833Z,98888.95
2018-08-13T20:40:37.122Z,98877.78
2018-08-13T20:43:35.475Z,98887.27
2018-08-13T20:46:33.443Z,98886.66
2018-08-13T20:49:31.701Z,98882.27
2018-08-13T20:52:31.106Z,98881.75
2018-08-13T20:55:32.316Z,98867.69
2018-08-13T20:58:31.521Z,98894.05
2018-08-13T21:01:29.944Z,98896.72
2018-08-13T21:04:28.853Z,98919.16
2018-08-13T21:07:27.157Z,98920.16
2018-08-13T21:10:27.441Z,98924.22
2018-08-13T21:13:27.779Z,98940.71
2018-08-13T21:16:26.885Z,98941.72
2018-08-13T21:19:25.297Z,98942.70
2018-08-13T21:22:23.865Z,98947.99
2018-08-13T21:25:23.290Z,98966.55
2018-08-13T21:28:22.690Z,98970.42
2018-08-13T21:31:21.347Z,98972.69
2018-08-13T21:34:20.077Z,98983.42
2018-08-13T21:37:18.209Z,98975.34
2018-08-13T21:40:17.113Z,98986.89
2018-08-13T21:43:15.302Z,98990.85
2018-08-13T21:46:14.679Z,98991.55
2018-08-13T21:49:13.993Z,99020.78
2018-08-13T21:52:19.682Z,99023.00
2018-08-13T21:55:19.104Z,99030.78
2018-08-13T21:58:17.276Z,99025.23
2018-08-13T22:01:21.635Z,99015.63
2018-08-13T22:04:19.800Z,99028.97
2018-08-13T22:07:18.517Z,99024.03
2018-08-13T22:10:17.655Z,99036.34
2018-08-13T22:13:15.842Z,99035.05
2018-08-13T22:16:14.220Z,99040.51
2018-08-13T22:19:12.337Z,99046.59
2018-08-13T22:22:10.845Z,99053.00
2018-08-13T22:25:25.253Z,99063.80
2018-08-13T22:28:25.497Z,99071.89
2018-08-13T22:31:24.184Z,99067.84
2018-08-13T22:34:23.567Z,99065.86
2018-08-13T22:37:22.126Z,99070.42
2018-08-13T22:40:23.236Z,99075.84
2018-08-13T22:43:22.235Z,99080.05
2018-08-13T22:46:21.233Z,99092.50
2018-08-13T22:49:19.418Z,99082.73
2018-08-13T22:52:17.453Z,99090.83
2018-08-13T22:55:16.132Z,99100.44
2018-08-13T22:58:14.200Z,99106.67
2018-08-13T23:01:12.733Z,99107.86
2018-08-13T23:04:10.886Z,99108.70
2018-08-13T23:07:09.913Z,99109.33
2018-08-13T23:10:08.172Z,99104.23
2018-08-13T23:13:08.121Z,99094.62
2018-08-13T23:16:08.436Z,99067.63
2018-08-13T23:19:06.869Z,99064.05
2018-08-13T23:22:06.244Z,99057.55
2018-08-13T23:25:04.621Z,99050.48
2018-08-13T23:28:05.079Z,99040.80
2018-08-13T23:31:03.647Z,99024.45
2018-08-13T23:34:02.458Z,99027.78
2018-08-13T23:37:00.566Z,99018.74
2018-08-13T23:39:59.088Z,99014.39
2018-08-13T23:42:57.583Z,99024.77
2018-08-13T23:45:56.926Z,99021.30
2018-08-13T23:48:56.446Z,99048.59
2018-08-13T23:51:56.050Z,99069.45
2018-08-13T23:55:02.625Z,99081.50
2018-08-13T23:58:01.421Z,99095.19
